createdAt,value
2019-04-07T00:03:13.170Z,40.83
2019-04-07T00:07:17.248Z,39.40
2019-04-07T00:11:20.382Z,41.70
2019-04-07T00:15:23.404Z,40.77
2019-04-07T00:19:27.144Z,40.40
2019-04-07T00:23:30.797Z,40.97
2019-04-07T00:27:33.975Z,40.83
2019-04-07T00:31:37.374Z,43.03
2019-04-07T00:35:40.458Z,42.37
2019-04-07T00:39:43.519Z,40.67
2019-04-07T00:43:47.144Z,39.87
2019-04-07T00:47:53.672Z,40.10
2019-04-07T00:51:58.453Z,41.20
2019-04-07T00:56:01.993Z,41.20
2019-04-07T01:00:07.321Z,46.10
2019-04-07T01:04:10.350Z,43.97
2019-04-07T01:08:13.955Z,46.57
2019-04-07T01:12:17.092Z,40.57
2019-04-07T01:16:20.798Z,45.53
2019-04-07T01:20:24.342Z,39.60
2019-04-07T01:24:27.740Z,43.13
2019-04-07T01:28:30.785Z,39.90
2019-04-07T01:32:35.654Z,39.47
2019-04-07T01:36:42.876Z,47.23
2019-04-07T01:40:54.588Z,42.10
2019-04-07T01:45:16.048Z,40.90
2019-04-07T01:49:47.635Z,37.37
2019-04-07T01:54:02.063Z,37.77
2019-04-07T01:58:33.823Z,42.30
2019-04-07T02:02:46.690Z,40.10
2019-04-07T02:07:08.183Z,46.27
2019-04-07T02:11:23.280Z,44.47
2019-04-07T02:15:45.932Z,40.63
2019-04-07T02:20:08.617Z,40.80
2019-04-07T02:24:31.203Z,41.53
2019-04-07T02:28:44.149Z,41.90
2019-04-07T02:32:58.595Z,41.20
2019-04-07T02:37:09.912Z,40.77
2019-04-07T02:41:21.161Z,40.27
2019-04-07T02:45:52.524Z,39.37
2019-04-07T02:50:05.314Z,39.47
2019-04-07T02:54:17.585Z,43.40
2019-04-07T02:58:32.570Z,43.20
2019-04-07T03:02:54.055Z,47.23
2019-04-07T03:07:15.126Z,47.30
2019-04-07T03:11:44.587Z,39.97
2019-04-07T03:16:05.851Z,45.20
2019-04-07T03:20:18.853Z,41.90
2019-04-07T03:24:40.452Z,40.57
2019-04-07T03:29:06.048Z,45.60
2019-04-07T03:33:30.796Z,40.07
2019-04-07T03:37:59.689Z,42.47
2019-04-07T03:42:34.413Z,41.57
2019-04-07T03:47:03.366Z,44.40
2019-04-07T03:51:17.793Z,43.37
2019-04-07T03:55:51.387Z,41.70
2019-04-07T04:00:31.908Z,41.20
2019-04-07T04:04:45.619Z,45.00
2019-04-07T04:09:00.547Z,45.07
2019-04-07T04:13:12.817Z,44.40
2019-04-07T04:17:16.492Z,47.73
2019-04-07T04:21:19.820Z,45.33
2019-04-07T04:25:23.078Z,46.83
2019-04-07T04:29:26.539Z,47.50
2019-04-07T04:33:29.789Z,45.77
2019-04-07T04:37:42.575Z,47.63
2019-04-07T04:41:40.789Z,48.07
2019-04-07T04:45:46.938Z,46.13
2019-04-07T04:49:50.280Z,47.80
2019-04-07T04:54:00.365Z,42.80
2019-04-07T04:58:04.151Z,43.30
2019-04-07T05:02:07.803Z,44.90
2019-04-07T05:06:11.025Z,42.07
2019-04-07T05:10:14.992Z,43.90
2019-04-07T05:14:17.994Z,42.97
2019-04-07T05:18:21.105Z,46.90
2019-04-07T05:22:24.099Z,43.27
2019-04-07T05:26:27.159Z,48.77
2019-04-07T05:30:30.235Z,44.80
2019-04-07T05:34:33.379Z,46.90
2019-04-07T05:38:36.694Z,42.27
2019-04-07T05:42:40.034Z,41.33
2019-04-07T05:46:43.461Z,42.40
2019-04-07T05:50:47.220Z,40.63
2019-04-07T05:54:51.469Z,40.50
2019-04-07T05:58:54.940Z,39.83
2019-04-07T06:02:58.238Z,39.77
2019-04-07T06:07:01.242Z,42.30
2019-04-07T06:11:04.964Z,40.00
2019-04-07T06:15:08.739Z,44.90
2019-04-07T06:19:11.714Z,41.77
2019-04-07T06:23:14.672Z,38.80
2019-04-07T06:27:18.111Z,42.40
2019-04-07T06:31:24.401Z,36.77
2019-04-07T06:35:26.977Z,41.03
2019-04-07T06:39:32.005Z,39.80
2019-04-07T06:43:37.141Z,38.87
2019-04-07T06:47:48.613Z,37.70
2019-04-07T06:52:12.266Z,37.60
2019-04-07T06:56:24.240Z,42.10
2019-04-07T07:00:46.945Z,48.50
2019-04-07T07:05:15.674Z,34.87
2019-04-07T07:09:30.812Z,36.87
2019-04-07T07:13:48.923Z,34.60
2019-04-07T07:18:10.257Z,35.20
2019-04-07T07:22:18.772Z,34.73
2019-04-07T07:26:21.936Z,33.43
2019-04-07T07:30:25.119Z,35.60
2019-04-07T07:34:28.360Z,33.97
2019-04-07T07:38:32.704Z,33.30
2019-04-07T07:42:36.582Z,33.47
2019-04-07T07:46:39.866Z,37.00
2019-04-07T07:50:43.498Z,32.73
2019-04-07T07:54:49.632Z,35.10
2019-04-07T07:58:52.998Z,33.60
2019-04-07T08:02:56.118Z,32.20
2019-04-07T08:06:59.173Z,33.00
2019-04-07T08:11:02.776Z,32.27
2019-04-07T08:15:07.157Z,31.03
2019-04-07T08:19:10.948Z,32.73
2019-04-07T08:23:14.318Z,28.30
2019-04-07T08:27:17.372Z,28.50
2019-04-07T08:31:21.467Z,22.77
2019-04-07T08:35:24.935Z,25.20
2019-04-07T08:39:33.580Z,22.53
2019-04-07T08:43:36.250Z,25.93
2019-04-07T08:47:40.179Z,22.10
2019-04-07T08:51:43.835Z,23.90
2019-04-07T08:55:48.675Z,26.23
2019-04-07T08:59:54.493Z,23.77
2019-04-07T09:03:58.551Z,21.90
2019-04-07T09:08:03.517Z,25.00
2019-04-07T09:12:13.136Z,20.07
2019-04-07T09:16:36.946Z,20.60
2019-04-07T09:20:50.644Z,21.23
2019-04-07T09:25:11.943Z,21.60
2019-04-07T09:29:31.317Z,19.43
2019-04-07T09:33:56.100Z,17.93
2019-04-07T09:38:28.409Z,18.97
2019-04-07T09:42:56.374Z,16.17
2019-04-07T09:47:15.903Z,12.60
2019-04-07T09:51:46.197Z,15.07
2019-04-07T09:56:18.413Z,16.03
2019-04-07T10:00:30.030Z,15.77
2019-04-07T10:04:54.390Z,12.57
2019-04-07T10:09:17.125Z,14.33
2019-04-07T10:13:39.852Z,16.10
2019-04-07T10:18:05.428Z,13.30
2019-04-07T10:22:27.662Z,13.60
2019-04-07T10:26:48.693Z,12.30
2019-04-07T10:31:20.865Z,13.53
2019-04-07T10:35:43.595Z,11.70
2019-04-07T10:40:21.781Z,12.93
2019-04-07T10:44:54.685Z,12.20
2019-04-07T10:49:21.262Z,14.30
2019-04-07T10:53:52.751Z,13.10
2019-04-07T10:58:11.821Z,12.80
2019-04-07T11:02:37.107Z,12.73
2019-04-07T11:07:11.444Z,12.00
2019-04-07T11:11:23.150Z,12.30
2019-04-07T11:15:37.032Z,12.83
2019-04-07T11:20:01.574Z,13.00
2019-04-07T11:24:17.568Z,13.13
2019-04-07T11:28:29.118Z,12.27
2019-04-07T11:32:50.237Z,12.43
2019-04-07T11:37:20.024Z,10.43
2019-04-07T11:41:30.700Z,11.57
2019-04-07T11:45:58.715Z,10.47
2019-04-07T11:50:18.899Z,12.97
2019-04-07T11:54:44.025Z,12.27
2019-04-07T11:59:09.160Z,16.83
2019-04-07T12:03:47.542Z,12.87
2019-04-07T12:08:16.509Z,11.17
2019-04-07T12:12:48.267Z,12.30
2019-04-07T12:17:19.950Z,10.37
2019-04-07T12:21:54.761Z,10.00
2019-04-07T12:26:06.299Z,12.57
2019-04-07T12:30:16.499Z,10.67
2019-04-07T12:34:41.771Z,10.53
2019-04-07T12:39:01.936Z,11.17
2019-04-07T12:43:44.572Z,11.00
2019-04-07T12:47:59.461Z,13.30
2019-04-07T12:52:37.656Z,13.67
2019-04-07T12:57:06.082Z,10.23
2019-04-07T13:01:29.489Z,11.07
2019-04-07T13:05:52.928Z,11.10
2019-04-07T13:10:25.300Z,11.30
2019-04-07T13:14:54.594Z,11.00
2019-04-07T13:19:23.120Z,11.53
2019-04-07T13:23:46.031Z,11.17
2019-04-07T13:28:15.253Z,10.77
2019-04-07T13:32:43.572Z,12.10
2019-04-07T13:37:04.686Z,11.73
2019-04-07T13:41:42.810Z,9.57
2019-04-07T13:45:58.922Z,9.77
2019-04-07T13:50:24.569Z,10.37
2019-04-07T13:54:48.229Z,10.40
2019-04-07T13:59:22.634Z,9.40
2019-04-07T14:03:57.082Z,9.80
2019-04-07T14:08:25.660Z,11.43
2019-04-07T14:13:12.137Z,13.90
2019-04-07T14:17:43.924Z,10.17
2019-04-07T14:22:10.149Z,10.80
2019-04-07T14:26:28.337Z,10.17
2019-04-07T14:30:49.981Z,8.60
2019-04-07T14:35:05.435Z,8.87
2019-04-07T14:39:29.378Z,11.50
2019-04-07T14:43:53.050Z,10.33
2019-04-07T14:48:17.427Z,9.27
2019-04-07T14:52:42.626Z,10.70
2019-04-07T14:57:09.016Z,9.80
2019-04-07T15:01:32.023Z,10.30
2019-04-07T15:05:37.250Z,10.20
2019-04-07T15:09:52.375Z,11.20
2019-04-07T15:13:57.753Z,11.20
2019-04-07T15:18:01.021Z,11.40
2019-04-07T15:22:07.877Z,11.37
2019-04-07T15:26:15.754Z,11.90
2019-04-07T15:30:20.189Z,12.83
2019-04-07T15:34:24.169Z,11.10
2019-04-07T15:38:28.495Z,11.13
2019-04-07T15:42:40.155Z,10.53
2019-04-07T15:46:36.662Z,11.10
2019-04-07T15:50:39.866Z,10.70
2019-04-07T15:54:43.468Z,10.90
2019-04-07T15:58:46.679Z,10.83
2019-04-07T16:02:52.091Z,10.60
2019-04-07T16:06:55.427Z,21.37
2019-04-07T16:11:04.962Z,15.30
2019-04-07T16:15:09.640Z,15.90
2019-04-07T16:19:19.616Z,18.33
2019-04-07T16:23:21.042Z,19.27
2019-04-07T16:27:30.607Z,16.30
2019-04-07T16:31:34.377Z,19.27
2019-04-07T16:35:37.852Z,16.40
2019-04-07T16:39:42.404Z,18.33
2019-04-07T16:43:45.844Z,15.40
2019-04-07T16:47:49.887Z,17.60
2019-04-07T16:51:53.074Z,16.60
2019-04-07T16:55:56.165Z,14.70
2019-04-07T17:00:01.489Z,14.10
2019-04-07T17:04:05.001Z,14.77
2019-04-07T17:08:08.612Z,14.90
2019-04-07T17:12:12.699Z,17.00
2019-04-07T17:16:22.149Z,15.20
2019-04-07T17:20:22.174Z,14.20
2019-04-07T17:24:30.481Z,14.63
2019-04-07T17:28:34.455Z,14.40
2019-04-07T17:32:44.468Z,14.40
2019-04-07T17:36:51.976Z,19.60
2019-04-07T17:40:53.377Z,13.90
2019-04-07T17:45:35.388Z,17.60
2019-04-07T17:49:59.004Z,18.73
2019-04-07T17:54:21.300Z,14.93
2019-04-07T17:58:44.337Z,13.63
2019-04-07T18:03:09.533Z,20.00
2019-04-07T18:07:48.743Z,16.30
2019-04-07T18:12:23.916Z,15.80
2019-04-07T18:17:02.559Z,19.20
2019-04-07T18:21:23.251Z,17.60
2019-04-07T18:25:41.364Z,25.80
2019-04-07T18:30:02.183Z,16.03
2019-04-07T18:34:26.441Z,15.27
2019-04-07T18:38:48.403Z,16.80
2019-04-07T18:43:13.898Z,17.30
2019-04-07T18:47:34.847Z,18.03
2019-04-07T18:51:59.984Z,15.93
2019-04-07T18:56:21.696Z,17.07
2019-04-07T19:00:48.158Z,17.00
2019-04-07T19:05:12.931Z,17.03
2019-04-07T19:09:47.642Z,15.03
2019-04-07T19:14:33.541Z,19.13
2019-04-07T19:18:52.383Z,17.93
2019-04-07T19:23:18.422Z,16.57
2019-04-07T19:27:44.737Z,16.23
2019-04-07T19:32:14.743Z,17.00
2019-04-07T19:36:30.585Z,15.90
2019-04-07T19:40:49.349Z,20.63
2019-04-07T19:45:15.506Z,17.80
2019-04-07T19:49:43.102Z,15.40
2019-04-07T19:54:00.707Z,14.57
2019-04-07T19:58:13.994Z,16.17
2019-04-07T20:02:42.557Z,14.40
2019-04-07T20:06:57.916Z,15.73
2019-04-07T20:11:24.716Z,15.53
2019-04-07T20:16:00.435Z,16.47
2019-04-07T20:20:35.812Z,13.70
2019-04-07T20:25:01.392Z,16.40
2019-04-07T20:29:19.341Z,15.67
2019-04-07T20:33:53.873Z,17.80
2019-04-07T20:38:34.317Z,16.30
2019-04-07T20:42:46.368Z,13.63
2019-04-07T20:47:07.931Z,17.23
2019-04-07T20:51:31.636Z,13.80
2019-04-07T20:56:00.367Z,13.87
2019-04-07T21:00:39.196Z,15.70
2019-04-07T21:04:53.428Z,13.37
2019-04-07T21:09:11.190Z,14.77
2019-04-07T21:13:47.188Z,14.40
2019-04-07T21:18:04.104Z,13.83
2019-04-07T21:22:38.984Z,16.53
2019-04-07T21:26:53.136Z,15.73
2019-04-07T21:31:20.379Z,13.53
2019-04-07T21:35:50.298Z,18.30
2019-04-07T21:40:24.782Z,14.87
2019-04-07T21:44:53.071Z,13.50
2019-04-07T21:49:35.408Z,15.03
2019-04-07T21:54:02.319Z,15.13
2019-04-07T21:58:34.189Z,16.37
2019-04-07T22:02:57.050Z,16.03
2019-04-07T22:07:11.177Z,15.33
2019-04-07T22:11:14.366Z,17.07
2019-04-07T22:15:20.617Z,15.93
2019-04-07T22:19:24.365Z,14.50
2019-04-07T22:23:29.552Z,16.97
2019-04-07T22:27:32.552Z,15.80
2019-04-07T22:31:49.993Z,16.47
2019-04-07T22:35:53.309Z,16.33
2019-04-07T22:40:01.810Z,17.07
2019-04-07T22:44:05.017Z,16.87
2019-04-07T22:48:14.754Z,15.70
2019-04-07T22:52:18.855Z,17.13
2019-04-07T22:56:25.415Z,17.40
2019-04-07T23:00:28.790Z,17.50
2019-04-07T23:04:31.866Z,19.20
2019-04-07T23:08:41.169Z,16.23
2019-04-07T23:12:44.428Z,17.30
2019-04-07T23:16:48.499Z,18.90
2019-04-07T23:20:51.691Z,18.73
2019-04-07T23:24:55.089Z,20.40
2019-04-07T23:28:58.439Z,18.93
2019-04-07T23:33:02.022Z,19.73
2019-04-07T23:37:06.002Z,19.07
2019-04-07T23:41:09.616Z,20.97
2019-04-07T23:45:13.094Z,20.53
2019-04-07T23:49:16.088Z,21.70
2019-04-07T23:54:14.126Z,21.70
2019-04-07T23:58:20.912Z,23.57
